SBBE/BEL METAR and TAF weather

Enter ICAO airport designator
Station Type Date Time Source
SBBE METAR 2022/06/30 00:00 UTC NOAA

SBBE 300000Z 19006KT 9999 FEW037 SCT070 25/24 Q1014


Station Type Date Time Source
SBBE Decoded METAR 2022/06/30 00:00 UTC NOAA

Belem Aeroporto , Brazil (SBBE) 01-23S 048-29W 16M
Jun 29, 2022 - 08:00 PM EDT / 2022.06.30 0000 UTC
Wind: from the S (190 degrees) at 7 MPH (6 KT):0
Visibility: greater than 7 mile(s):0
Sky conditions: partly cloudy
Temperature: 77 F (25 C)
Dew Point: 75 F (24 C)
Relative Humidity: 94%
Pressure (altimeter): 29.94 in. Hg (1014 hPa)
ob: SBBE 300000Z 19006KT 9999 FEW037 SCT070 25/24 Q1014
cycle: 0

Station Type Date Time Source
SBBE TAF 2022/06/30 06:06 UTC NOAA

TAF TAF SBBE 300100Z 3006/0106 09005KT CAVOK TN25/3007Z TX33/3018Z
BECMG 3014/3016 13005KT SCT035
BECMG 3022/3024 09005KT TS SCT030 FEW035CB
BECMG 0101/0103 CAVOK
RMK PHD

Example: see airport list